Aeroporto :
LOGIN :

Iscrizione | Disclaimer

   EN    FR    IT 

 










Sommario :    VFR   VFR Marginale   IFR   IFR Intensivo   IFR Molto Intensivo
Visibilità : 
Base nubi : 
>= 8 km
>= 3000ft
5 / 8 km
1000 / 3000 ft
1500m / 5 km
500 / 1000 ft
800 / 1500m
200 / 500 ft
< 800m
< 200 ft
Simboli :   Temporali  Nebbia  Neve Forte  Precipitazioni Forti  Vento > 20 kt
SIGMETs :   Varie  Temporali  Ghiacco  Turbolenza  Onda orograficha  Ceneri Vulcaniche







- Altitudine del aeroporto : 408 ft
- Codice IATA : FKB


EDSB - Karlsruhe Baden Baden

ULTIMO METAR :
  • 160720Z 24003KT 210V270 2400 -FZDZ BR BKN003 OVC007 M01/M02 Q1013

METARs OBSOLETI :
  • 160650Z 20004KT 3000 -FZDZ BR SCT003 OVC009 M02/M02 Q1012 REFZDZ
  • 160620Z 17003KT 2700 FZDZ BR FEW003 SCT005 OVC009 M02/M02 Q1013
  • 160550Z 00000KT 3300 -FZDZ FEW004 SCT006 OVC013 M02/M03 Q1013
  • 160520Z VRB02KT 3200 -SN FEW004 BKN012 OVC020 M02/M02 Q1013
  • 160450Z VRB02KT 3000 -SN FEW008 OVC013 M02/M03 Q1013

TAF AMD TAF EDSB
Valido dal 16 a 07 ore il 17 a 06 ore UTC


160739Z 1607/1706 VRB03KT 6000 BKN015
TEMPO 1607/1610 2500 -FZDZ BKN005
PROB30
TEMPO 1607/1610 1400 -SN BR BKN002
BECMG 1608/1610 22005KT
Nessun NOTAM noto per questo aeroporto.
4 SIGMETs conosciuti per la FIR Langen (EDGG) :
 
Forte formazione di ghiaccio
EDGG SIGMET 9 VALID 160730/161000 EDZF
EDGG LANGEN FIR SEV ICE FCST NE OF LINE N5215 E00715 - N4830 E00930 FL100/140 MOV NE 10KT NC=
forte formazione di ghiaccio e pioggia congelantesi
EDGG SIGMET 8 VALID 160705/160900 EDZF
EDGG LANGEN FIR SEV ICE (FZRA) FCST W OF LINE N5215 E00730 - N4750 E00930 SFC/FL080 MOV E NC=
Cancellazione del SIGMET 6 
EDGG SIGMET 7 VALID 160704/160900 EDZF
EDGG LANGEN FIR CNL SIGMET 6 160700/160900=
SIGMET 6  ANNULATO :
forte formazione di ghiaccio e pioggia congelantesi
EDGG SIGMET 6 VALID 160700/160900 EDZF
EDGG LANGEN FIR SEV ICE (FZRA) FCST W OF LINE N5215 E00730 - N4750 E00930 TOP FL080 MOV E NC=



MetMap, La meteo Aeronautica in un colpo d'occhio ! - Copyright ORBIFLY Dicembre 2007 - Disclaimer

ORBIFLY MET'MAP TEAM :

Programmazione e sviluppo : Alexandra Zaïnal
Concezione e sviluppo : Baudouin d'Aumeries
Co-Programmazione e sviluppo : Marc-Olivier Méhu
Supporto tecnico e logistico : Manuel Goepfert
Aiuto per la traduzione : Arnaldo La Scala

Contatto : metmap@orbifly.com




FONTI E CREDITI :

   NOAA